Time;durP1;ratioP1;P1;durP2;ratioP2;P2;SDS_P1;SDS_P2;PMS_P1;PMS_P2;Temp;Humidity;BMP_temperature;BMP_pressure;BME280_temperature;BME280_humidity;BME280_pressure;Samples;Min_cycle;Max_cycle;Signal;HPM_P1;HPM_P2
2022/06/22 00:02:01;;;;;;;;;6.00;6.00;;;;;20.99;72.40;99609.06;5029576;28;45447;-71
2022/06/22 00:04:56;;;;;;;;;5.00;4.33;;;;;21.03;72.84;99614.25;5013145;28;45468;-71
2022/06/22 00:07:35;;;;;;;;;3.00;3.00;;;;;21.02;73.00;99601.88;5023937;28;45510;-71
2022/06/22 00:10:37;;;;;;;;;3.00;3.00;;;;;20.99;72.79;99593.13;5035901;28;45435;-71
2022/06/22 00:13:05;;;;;;;;;5.33;5.00;;;;;20.94;72.79;99580.00;5035122;28;45365;-71
2022/06/22 00:15:58;;;;;;;;;4.00;3.33;;;;;20.97;72.66;99589.66;5032570;28;45422;-71
2022/06/22 00:18:32;;;;;;;;;3.00;3.00;;;;;20.93;72.91;99580.94;5034021;28;45435;-71
2022/06/22 00:21:26;;;;;;;;;3.67;3.67;;;;;20.86;72.47;99564.28;5033432;28;45432;-71
2022/06/22 00:23:57;;;;;;;;;4.33;3.67;;;;;20.93;72.69;99558.78;5029998;28;46228;-71
2022/06/22 00:26:23;;;;;;;;;4.33;4.00;;;;;20.90;72.51;99567.72;5030480;28;45988;-71
2022/06/22 00:29:01;;;;;;;;;4.00;4.00;;;;;20.88;72.88;99571.34;5014470;28;45450;-71
2022/06/22 00:31:41;;;;;;;;;5.00;4.67;;;;;20.88;73.01;99571.34;5033941;28;45618;-71
2022/06/22 00:34:09;;;;;;;;;4.00;3.67;;;;;20.89;73.19;99578.38;5029201;28;46153;-71
2022/06/22 00:36:46;;;;;;;;;3.67;3.00;;;;;20.76;72.98;99549.53;5035101;28;45519;-71
2022/06/22 00:39:18;;;;;;;;;5.00;4.00;;;;;20.86;72.58;99564.28;5032108;28;45316;-71
2022/06/22 00:41:52;;;;;;;;;4.00;4.00;;;;;20.86;72.35;99566.94;5033719;28;45622;-71
2022/06/22 00:44:19;;;;;;;;;5.00;4.33;;;;;20.62;72.62;99522.50;5030452;28;45485;-71
2022/06/22 00:47:11;;;;;;;;;7.00;4.67;;;;;20.69;72.55;99539.13;5029960;28;45461;-72
2022/06/22 00:49:44;;;;;;;;;7.00;5.67;;;;;20.69;72.39;99539.13;5022717;28;45639;-71
2022/06/22 00:52:09;;;;;;;;;4.00;4.00;;;;;20.82;72.70;99567.94;5024657;28;45814;-71
2022/06/22 00:54:37;;;;;;;;;5.00;4.00;;;;;20.75;73.13;99550.47;5036110;28;45938;-71
2022/06/22 00:57:14;;;;;;;;;3.33;3.33;;;;;20.69;73.55;99550.63;5037663;28;45501;-71
2022/06/22 00:59:51;;;;;;;;;3.33;3.33;;;;;20.77;72.79;99564.56;5034087;28;45529;-71
2022/06/22 01:02:46;;;;;;;;;4.00;4.00;;;;;20.76;72.90;99560.13;5032324;28;45459;-71
2022/06/22 01:05:21;;;;;;;;;4.33;3.33;;;;;20.75;73.36;99577.00;5036108;28;46169;-71
2022/06/22 01:08:08;;;;;;;;;5.00;5.00;;;;;20.74;73.51;99580.53;5021253;28;45490;-71
2022/06/22 01:10:40;;;;;;;;;5.00;4.67;;;;;20.70;73.26;99573.59;5020329;28;45662;-71
2022/06/22 01:13:19;;;;;;;;;5.67;5.67;;;;;20.55;74.56;99544.75;5037108;28;45533;-71
2022/06/22 01:16:25;;;;;;;;;5.00;4.33;;;;;20.68;74.70;99569.25;5036121;28;46077;-71
2022/06/22 01:18:59;;;;;;;;;4.67;4.33;;;;;20.61;74.96;99553.47;4976152;28;45672;-71
2022/06/22 01:21:28;;;;;;;;;4.67;4.00;;;;;20.70;75.05;99572.72;5027957;28;45453;-71
2022/06/22 01:24:18;;;;;;;;;6.00;6.00;;;;;20.50;75.41;99531.63;5039107;28;45418;-71
2022/06/22 01:27:10;;;;;;;;;6.33;5.00;;;;;20.66;75.51;99553.34;5028871;28;46113;-71
2022/06/22 01:29:47;;;;;;;;;5.00;4.00;;;;;20.70;74.98;99562.97;5036086;28;45433;-71
2022/06/22 01:32:17;;;;;;;;;5.33;5.33;;;;;20.58;75.43;99553.53;5032086;28;45497;-71
2022/06/22 01:34:47;;;;;;;;;7.00;6.00;;;;;20.65;75.68;99552.50;5036195;28;45498;-71
2022/06/22 01:37:23;;;;;;;;;4.67;4.00;;;;;20.67;75.17;99552.41;5033569;28;45456;-71
2022/06/22 01:39:49;;;;;;;;;5.67;5.67;;;;;20.57;75.48;99530.56;5012720;28;45531;-71
2022/06/22 01:42:20;;;;;;;;;5.33;5.00;;;;;20.66;74.79;99543.59;5020178;28;45411;-71
2022/06/22 01:44:55;;;;;;;;;4.00;4.00;;;;;20.65;74.75;99557.78;5035595;28;45533;-71
2022/06/22 01:47:41;;;;;;;;;5.00;5.00;;;;;20.50;75.15;99530.78;5033957;28;46010;-71
2022/06/22 01:50:26;;;;;;;;;5.00;5.00;;;;;20.68;75.17;99540.03;5035805;28;45581;-71
2022/06/22 01:53:19;;;;;;;;;6.00;5.00;;;;;20.66;74.60;99521.50;5033975;28;45441;-71
2022/06/22 01:56:18;;;;;;;;;5.00;5.00;;;;;20.55;74.24;99524.44;5033269;28;45542;-71
2022/06/22 01:59:02;;;;;;;;;6.00;5.33;;;;;20.63;74.73;99541.03;5034333;28;46182;-71
2022/06/22 02:01:55;;;;;;;;;5.00;5.00;;;;;20.61;74.30;99531.38;5009338;28;45584;-71
2022/06/22 02:04:43;;;;;;;;;7.00;5.67;;;;;20.47;74.38;99502.53;5010482;28;45398;-70
2022/06/22 02:10:35;;;;;;;;;3.00;3.00;;;;;20.61;74.38;99542.88;5033737;28;45664;-71
2022/06/22 02:13:18;;;;;;;;;5.33;5.00;;;;;20.60;74.81;99546.41;5035820;28;45414;-71
2022/06/22 02:16:15;;;;;;;;;4.00;4.00;;;;;20.59;74.79;99567.69;5029044;28;45493;-71
2022/06/22 02:18:49;;;;;;;;;4.00;4.00;;;;;20.48;74.56;99556.47;5009809;28;45386;-71
2022/06/22 02:21:20;;;;;;;;;5.00;4.00;;;;;20.58;74.54;99590.66;5037044;28;46322;-71
2022/06/22 02:23:55;;;;;;;;;6.00;5.00;;;;;20.48;74.91;99581.22;5025222;28;45479;-71
2022/06/22 02:26:28;;;;;;;;;2.00;2.00;;;;;20.53;73.58;99602.31;5033830;28;45553;-71
2022/06/22 02:28:55;;;;;;;;;2.00;1.00;;;;;20.35;71.17;99587.72;5036622;28;46078;-71
2022/06/22 02:31:21;;;;;;;;;1.00;0.33;;;;;19.98;70.44;99584.22;5032138;28;46452;-71
2022/06/22 02:33:53;;;;;;;;;0.33;0.00;;;;;19.92;71.44;99589.66;5029353;28;45434;-71
2022/06/22 02:36:20;;;;;;;;;0.00;0.00;;;;;19.84;70.93;99624.28;5037941;28;45743;-71
2022/06/22 02:38:48;;;;;;;;;0.00;0.00;;;;;19.65;70.53;99634.38;5035159;28;46272;-71
2022/06/22 02:46:46;;;;;;;;;0.00;0.00;;;;;19.56;71.25;99661.09;5031980;28;45972;-71
2022/06/22 02:49:20;;;;;;;;;0.00;0.00;;;;;19.36;71.20;99636.78;5030839;28;45545;-71
2022/06/22 02:51:48;;;;;;;;;0.00;0.00;;;;;19.48;71.30;99679.78;5035476;28;46340;-71
2022/06/22 02:54:32;;;;;;;;;0.00;0.00;;;;;19.48;71.00;99689.53;5033286;28;45478;-71
2022/06/22 02:57:20;;;;;;;;;0.00;0.00;;;;;19.33;71.07;99642.16;5032285;28;45651;-71
2022/06/22 02:59:48;;;;;;;;;0.00;0.00;;;;;18.94;71.23;99541.44;5029771;28;45444;-71
2022/06/22 03:02:16;;;;;;;;;1.00;0.00;;;;;19.23;71.50;99594.66;5029956;28;46902;-71
2022/06/22 03:04:44;;;;;;;;;1.67;0.00;;;;;19.22;72.45;99643.25;5035659;28;45513;-71
2022/06/22 03:07:09;;;;;;;;;0.33;0.00;;;;;19.21;73.04;99662.66;5035956;28;45470;-71
2022/06/22 03:09:38;;;;;;;;;0.00;0.00;;;;;19.17;73.14;99660.97;5034941;28;45587;-71
2022/06/22 03:12:05;;;;;;;;;0.00;0.00;;;;;19.16;72.63;99647.78;5037110;28;45634;-71
2022/06/22 03:14:35;;;;;;;;;1.33;0.00;;;;;19.19;72.22;99656.53;5032448;28;45347;-71
2022/06/22 03:17:13;;;;;;;;;1.67;0.67;;;;;19.13;72.20;99647.84;5036466;28;45426;-71
2022/06/22 03:20:00;;;;;;;;;1.00;0.00;;;;;18.96;73.50;99632.28;5037310;28;45324;-71
2022/06/22 03:22:33;;;;;;;;;0.00;0.00;;;;;18.93;73.18;99640.28;5035133;28;46554;-70
2022/06/22 03:25:15;;;;;;;;;3.00;0.00;;;;;19.12;72.69;99672.56;5033379;28;45450;-71
2022/06/22 03:27:45;;;;;;;;;0.00;0.00;;;;;19.01;73.00;99662.19;5034891;28;45554;-71
2022/06/22 03:30:22;;;;;;;;;0.00;0.00;;;;;19.11;73.49;99679.63;5033187;28;45497;-71
2022/06/22 03:32:51;;;;;;;;;0.00;0.00;;;;;19.16;73.22;99690.13;5033044;28;46147;-71
2022/06/22 03:35:22;;;;;;;;;1.00;0.00;;;;;19.00;72.59;99665.72;5035603;28;45589;-71
2022/06/22 03:38:16;;;;;;;;;0.00;0.00;;;;;19.17;72.96;99705.13;5032969;28;45517;-71
2022/06/22 03:40:50;;;;;;;;;0.00;0.00;;;;;18.87;72.74;99650.06;5035100;28;45268;-71
2022/06/22 03:43:23;;;;;;;;;0.67;0.00;;;;;19.18;72.36;99701.56;5033245;28;46166;-71
2022/06/22 03:45:59;;;;;;;;;0.00;0.00;;;;;19.15;72.15;99693.69;5032861;28;45439;-71
2022/06/22 03:48:30;;;;;;;;;0.00;0.00;;;;;19.06;72.90;99692.09;5035400;28;45495;-71
2022/06/22 03:51:10;;;;;;;;;0.00;0.00;;;;;19.12;72.73;99701.69;5034551;28;45274;-71
2022/06/22 03:54:07;;;;;;;;;0.00;0.00;;;;;19.06;72.54;99692.09;5032848;28;46526;-71
2022/06/22 03:56:38;;;;;;;;;0.00;0.00;;;;;18.96;73.50;99687.84;5032293;28;45524;-71
2022/06/22 03:59:05;;;;;;;;;0.00;0.00;;;;;18.99;73.00;99706.34;5034616;28;45331;-71
2022/06/22 04:01:31;;;;;;;;;0.00;0.00;;;;;19.16;73.16;99730.75;5035573;28;45528;-70
2022/06/22 04:03:58;;;;;;;;;0.00;0.00;;;;;19.08;73.53;99715.00;5035139;28;46317;-71
2022/06/22 04:06:31;;;;;;;;;1.00;0.00;;;;;19.17;73.67;99724.53;5035274;28;45524;-71
2022/06/22 04:08:59;;;;;;;;;0.00;0.00;;;;;19.18;73.74;99718.34;5035242;28;45335;-71
2022/06/22 04:11:37;;;;;;;;;0.00;0.00;;;;;19.05;73.47;99700.94;5034505;28;45486;-71
2022/06/22 04:14:12;;;;;;;;;0.00;0.00;;;;;19.16;73.99;99722.78;5034530;28;45430;-71
2022/06/22 04:16:42;;;;;;;;;0.00;0.00;;;;;19.04;73.19;99709.78;5033843;28;45627;-71
2022/06/22 04:19:22;;;;;;;;;0.00;0.00;;;;;19.12;74.17;99722.84;5035293;28;45524;-71
2022/06/22 04:21:53;;;;;;;;;0.00;0.00;;;;;19.07;73.53;99729.13;5018316;28;45387;-71
2022/06/22 04:24:35;;;;;;;;;0.00;0.00;;;;;19.07;73.61;99730.91;5017719;28;45615;-72
2022/06/22 04:27:13;;;;;;;;;0.00;0.00;;;;;19.01;73.68;99736.31;5024203;28;45643;-71
2022/06/22 04:29:38;;;;;;;;;0.00;0.00;;;;;19.10;73.82;99752.03;5040233;28;45445;-71
2022/06/22 04:32:27;;;;;;;;;0.00;0.00;;;;;19.11;73.86;99767.00;5040681;28;45457;-71
2022/06/22 04:35:22;;;;;;;;;0.00;0.00;;;;;19.10;73.33;99767.03;5030816;28;46280;-71
2022/06/22 04:37:54;;;;;;;;;0.00;0.00;;;;;19.06;73.05;99766.22;4993004;28;45335;-71
2022/06/22 04:40:31;;;;;;;;;0.00;0.00;;;;;18.48;72.96;99673.66;5021694;28;45263;-71
2022/06/22 04:43:01;;;;;;;;;0.00;0.00;;;;;19.01;73.09;99768.06;5039696;28;45670;-71
2022/06/22 04:45:30;;;;;;;;;2.00;0.00;;;;;19.10;72.58;99780.25;5039096;28;45286;-71
2022/06/22 04:48:05;;;;;;;;;1.00;1.00;;;;;19.07;73.00;99773.25;5038738;28;45414;-71
2022/06/22 04:50:31;;;;;;;;;3.00;1.00;;;;;18.99;72.64;99760.13;5039477;28;45487;-71
2022/06/22 04:52:59;;;;;;;;;0.00;0.00;;;;;19.09;72.95;99776.75;5039334;28;45447;-71
2022/06/22 04:55:27;;;;;;;;;0.67;0.00;;;;;19.12;73.71;99789.03;5038910;28;45302;-71
2022/06/22 04:58:00;;;;;;;;;0.00;0.00;;;;;19.14;73.40;99785.50;5039147;28;45454;-71
2022/06/22 05:00:30;;;;;;;;;0.00;0.00;;;;;19.17;73.00;99780.13;5038803;28;45627;-71
2022/06/22 05:03:07;;;;;;;;;0.67;0.00;;;;;19.01;71.75;99760.13;5039405;28;45525;-71
2022/06/22 05:05:35;;;;;;;;;0.00;0.00;;;;;19.08;72.61;99785.59;5023862;28;45487;-71
2022/06/22 05:08:10;;;;;;;;;4.67;2.67;;;;;19.05;73.00;99775.06;5038626;28;45351;-71
2022/06/22 05:11:13;;;;;;;;;1.00;1.00;;;;;19.17;72.99;99798.66;5038024;28;45362;-71
2022/06/22 05:13:42;;;;;;;;;0.00;0.00;;;;;18.97;73.46;99775.19;5026074;28;45375;-71
2022/06/22 05:16:13;;;;;;;;;0.00;0.00;;;;;18.95;72.81;99782.25;5038361;28;46178;-72
2022/06/22 05:18:42;;;;;;;;;0.67;0.00;;;;;19.05;71.96;99796.22;5039385;28;45626;-71
2022/06/22 05:21:46;;;;;;;;;0.00;0.00;;;;;19.16;72.28;99806.63;5037652;28;45538;-71
2022/06/22 05:24:17;;;;;;;;;1.00;0.00;;;;;19.16;72.31;99807.53;5017350;28;45395;-71
2022/06/22 05:26:43;;;;;;;;;0.00;0.00;;;;;19.17;72.74;99805.75;5036415;28;46577;-71
2022/06/22 05:29:12;;;;;;;;;0.00;0.00;;;;;19.15;72.62;99796.94;5038713;28;45367;-71
2022/06/22 05:31:49;;;;;;;;;0.00;0.00;;;;;18.92;72.60;99774.41;5039257;28;45485;-71
2022/06/22 05:34:21;;;;;;;;;1.00;0.00;;;;;19.07;72.45;99802.38;5017482;28;45798;-71
2022/06/22 05:36:53;;;;;;;;;0.00;0.00;;;;;19.01;73.17;99789.25;5032786;28;45661;-71
2022/06/22 05:39:19;;;;;;;;;0.00;0.00;;;;;19.03;73.40;99792.72;5029818;28;47014;-71
2022/06/22 05:41:47;;;;;;;;;3.00;2.00;;;;;19.14;73.76;99817.25;5034856;28;45450;-71
2022/06/22 05:44:17;;;;;;;;;2.67;1.67;;;;;19.16;74.00;99820.75;5030836;28;45418;-71
2022/06/22 05:46:54;;;;;;;;;1.00;1.00;;;;;19.17;73.83;99814.53;5031932;28;46126;-71
2022/06/22 05:49:24;;;;;;;;;1.00;1.00;;;;;19.14;72.48;99796.09;5031976;28;45869;-71
2022/06/22 05:52:11;;;;;;;;;1.00;0.00;;;;;19.24;72.32;99802.97;5031875;28;45585;-71
2022/06/22 05:54:45;;;;;;;;;1.00;1.00;;;;;19.32;72.70;99791.34;5032348;28;45426;-71
2022/06/22 05:57:36;;;;;;;;;0.33;0.33;;;;;19.41;72.75;99796.47;5032136;28;46126;-71
2022/06/22 06:00:21;;;;;;;;;1.00;0.00;;;;;19.49;71.84;99799.84;5032661;28;45619;-71
2022/06/22 06:03:21;;;;;;;;;1.67;1.00;;;;;19.53;71.66;99796.25;5030554;28;45516;-71
2022/06/22 06:06:10;;;;;;;;;0.00;0.00;;;;;19.60;71.61;99794.38;5031528;28;45616;-70
2022/06/22 06:08:46;;;;;;;;;1.00;0.00;;;;;19.62;70.95;99755.47;5034636;28;45513;-71
2022/06/22 06:11:18;;;;;;;;;0.33;0.33;;;;;20.17;70.17;99772.03;5034590;28;45434;-71
2022/06/22 06:13:58;;;;;;;;;2.00;0.00;;;;;20.57;68.88;99781.75;5037044;28;45404;-71
2022/06/22 06:16:27;;;;;;;;;1.33;1.00;;;;;20.60;68.70;99795.84;5036825;28;45480;-71
2022/06/22 06:19:00;;;;;;;;;0.00;0.00;;;;;20.49;68.45;99786.34;5036547;28;45560;-71
2022/06/22 06:21:32;;;;;;;;;0.33;0.00;;;;;20.30;68.79;99775.31;5036293;28;45446;-72
2022/06/22 06:24:18;;;;;;;;;0.33;0.33;;;;;20.39;68.70;99804.25;5036971;28;45520;-71
2022/06/22 06:30:19;;;;;;;;;1.00;0.00;;;;;20.32;69.01;99807.97;5030514;28;45885;-71
2022/06/22 06:32:59;;;;;;;;;1.00;0.00;;;;;20.26;69.05;99807.19;5028783;28;45497;-71
2022/06/22 06:35:44;;;;;;;;;1.33;1.00;;;;;20.15;69.76;99803.88;5031716;28;45473;-71
2022/06/22 06:38:34;;;;;;;;;0.00;0.00;;;;;20.22;69.88;99815.25;5031599;28;47043;-71
2022/06/22 06:41:12;;;;;;;;;2.00;0.33;;;;;20.22;68.64;99820.56;5031020;28;46384;-71
2022/06/22 06:43:47;;;;;;;;;0.67;0.67;;;;;20.25;69.25;99818.72;5031129;28;45670;-71
2022/06/22 06:46:42;;;;;;;;;1.00;1.00;;;;;20.30;69.59;99823.03;5010923;28;45442;-71
2022/06/22 06:49:20;;;;;;;;;1.00;1.00;;;;;20.29;69.14;99818.63;5029762;28;45505;-71
2022/06/22 06:52:12;;;;;;;;;0.00;0.00;;;;;20.32;69.02;99832.72;5028440;28;46256;-72
2022/06/22 06:54:47;;;;;;;;;2.00;1.00;;;;;20.14;69.61;99804.81;5030511;28;45748;-71
2022/06/22 06:57:19;;;;;;;;;1.00;1.00;;;;;20.23;69.61;99825.84;5035267;28;45406;-71
2022/06/22 06:59:50;;;;;;;;;2.00;1.00;;;;;20.10;69.02;99815.50;5037207;28;45400;-71
2022/06/22 07:02:37;;;;;;;;;0.33;0.00;;;;;19.88;69.17;99794.75;5019213;28;45550;-71
2022/06/22 07:05:13;;;;;;;;;0.00;0.00;;;;;19.85;68.81;99773.59;5018615;28;46910;-71
2022/06/22 07:07:46;;;;;;;;;1.67;1.00;;;;;20.19;68.94;99808.25;5036744;28;45414;-71
2022/06/22 07:10:24;;;;;;;;;2.00;2.00;;;;;20.30;68.31;99804.47;5019768;28;45637;-72
2022/06/22 07:12:58;;;;;;;;;1.33;1.00;;;;;20.36;67.56;99776.03;5018662;28;45420;-71
2022/06/22 07:15:33;;;;;;;;;2.00;1.00;;;;;20.83;66.69;99803.28;5032626;28;45484;-71
2022/06/22 07:18:04;;;;;;;;;4.33;3.00;;;;;21.24;65.61;99792.53;5027649;28;45485;-69
2022/06/22 07:20:36;;;;;;;;;1.00;1.00;;;;;23.99;60.75;99799.09;5015979;28;45562;-69
2022/06/22 07:23:25;;;;;;;;;1.00;1.00;;;;;28.76;47.01;99788.38;5020301;28;46067;-68
2022/06/22 07:25:58;;;;;;;;;2.00;1.00;;;;;32.27;41.28;99783.78;5036846;28;45238;-69
2022/06/22 07:28:27;;;;;;;;;0.00;0.00;;;;;35.04;34.52;99801.06;5036149;28;45336;-68
2022/06/22 07:31:02;;;;;;;;;2.33;1.67;;;;;37.08;31.61;99804.94;5037092;28;45359;-69
2022/06/22 07:33:54;;;;;;;;;0.00;0.00;;;;;38.57;28.70;99793.44;5036740;28;45735;-69
2022/06/22 07:36:33;;;;;;;;;0.00;0.00;;;;;39.99;26.31;99789.91;5036506;28;45675;-70
2022/06/22 07:39:24;;;;;;;;;0.67;0.67;;;;;38.88;27.03;99774.81;5036796;28;45553;-70
2022/06/22 07:41:52;;;;;;;;;0.67;0.67;;;;;35.29;31.50;99779.13;5036820;28;45544;-70
2022/06/22 07:44:25;;;;;;;;;0.33;0.00;;;;;32.98;34.89;99749.69;5035008;28;47385;-70
2022/06/22 07:47:00;;;;;;;;;0.67;0.67;;;;;31.85;36.32;99797.56;5036545;28;45864;-70
2022/06/22 07:49:34;;;;;;;;;0.33;0.00;;;;;31.55;37.77;99792.44;5036344;28;45453;-70
2022/06/22 07:52:03;;;;;;;;;0.00;0.00;;;;;33.01;36.84;99783.78;5036462;28;45548;-70
2022/06/22 07:54:40;;;;;;;;;2.33;2.00;;;;;32.37;36.15;99782.16;5036342;28;46318;-70
2022/06/22 07:57:13;;;;;;;;;1.00;0.33;;;;;31.19;38.47;99783.19;5036783;28;45322;-70
2022/06/22 07:59:38;;;;;;;;;0.67;0.67;;;;;30.39;39.95;99779.50;5037311;28;45365;-70
2022/06/22 08:02:14;;;;;;;;;1.67;1.33;;;;;31.19;39.02;99766.13;5037105;28;45343;-70
2022/06/22 08:04:54;;;;;;;;;1.67;0.67;;;;;35.14;31.25;99752.28;5036532;28;45469;-70
2022/06/22 08:07:29;;;;;;;;;1.67;1.00;;;;;38.06;28.64;99741.13;5036755;28;45450;-70
2022/06/22 08:09:55;;;;;;;;;1.67;0.67;;;;;40.01;25.23;99765.97;5036447;28;45493;-71
2022/06/22 08:12:32;;;;;;;;;0.67;0.67;;;;;40.73;25.06;99742.66;5033492;28;45526;-71
2022/06/22 08:15:02;;;;;;;;;1.00;0.67;;;;;41.48;23.59;99751.75;5033736;28;46721;-69
2022/06/22 08:17:36;;;;;;;;;1.33;0.67;;;;;42.51;21.46;99779.25;5035550;28;45469;-71
2022/06/22 08:20:04;;;;;;;;;0.00;0.00;;;;;43.16;21.01;99760.63;5035392;28;45524;-71
2022/06/22 08:22:29;;;;;;;;;2.00;2.00;;;;;43.88;20.81;99781.28;5035889;28;45461;-71
2022/06/22 08:24:58;;;;;;;;;1.33;0.33;;;;;44.70;17.97;99768.38;5036155;28;46105;-70
2022/06/22 08:27:28;;;;;;;;;1.33;0.00;;;;;45.05;17.83;99750.97;5033666;28;46279;-71
2022/06/22 08:29:54;;;;;;;;;3.33;3.00;;;;;45.20;18.15;99761.06;5017145;28;45321;-70
2022/06/22 08:32:33;;;;;;;;;0.67;0.67;;;;;45.61;18.08;99772.22;5034915;28;45355;-70
2022/06/22 08:35:29;;;;;;;;;0.00;0.00;;;;;45.34;17.22;99771.16;5035430;28;45560;-71
2022/06/22 08:38:04;;;;;;;;;0.00;0.00;;;;;45.50;18.20;99769.16;4998004;28;45529;-70
2022/06/22 08:40:55;;;;;;;;;0.67;0.33;;;;;46.21;17.88;99767.09;5020206;28;45543;-70
2022/06/22 08:43:47;;;;;;;;;0.00;0.00;;;;;46.07;16.85;99772.78;5025354;28;45523;-70
2022/06/22 08:46:41;;;;;;;;;0.00;0.00;;;;;43.98;19.71;99770.84;5000617;28;48106;-71
2022/06/22 08:49:25;;;;;;;;;2.33;1.67;;;;;42.46;21.19;99762.47;5017603;28;45578;-70
2022/06/22 08:52:03;;;;;;;;;0.00;0.00;;;;;41.49;21.97;99756.22;5035444;28;45674;-70
2022/06/22 08:54:44;;;;;;;;;8.67;8.33;;;;;39.97;23.44;99770.91;5035529;28;45582;-70
2022/06/22 08:57:32;;;;;;;;;1.67;0.00;;;;;38.61;25.36;99756.63;5035516;28;45477;-71
2022/06/22 09:00:15;;;;;;;;;2.67;1.00;;;;;38.05;25.51;99758.47;5035672;28;45409;-70
2022/06/22 09:03:09;;;;;;;;;1.67;0.00;;;;;39.41;24.23;99761.28;5035742;28;45392;-70
2022/06/22 09:06:22;;;;;;;;;0.00;0.00;;;;;41.84;22.21;99762.34;5035285;28;45562;-71
2022/06/22 09:09:15;;;;;;;;;2.00;0.00;;;;;43.74;19.49;99765.63;5018104;28;45474;-71
2022/06/22 09:12:07;;;;;;;;;0.00;0.00;;;;;44.86;18.75;99768.13;5035714;28;45320;-70
2022/06/22 09:14:57;;;;;;;;;0.00;0.00;;;;;43.87;18.77;99774.06;5036218;28;45305;-71
2022/06/22 09:17:53;;;;;;;;;0.00;0.00;;;;;43.16;19.46;99771.63;5038478;28;45445;-70
2022/06/22 09:20:36;;;;;;;;;1.00;0.00;;;;;42.07;20.23;99774.28;5038368;28;46063;-70
2022/06/22 09:23:23;;;;;;;;;0.33;0.33;;;;;43.15;19.82;99764.41;5038560;28;45511;-70
2022/06/22 09:26:34;;;;;;;;;1.00;0.33;;;;;44.40;18.89;99762.94;5020346;28;45483;-70
2022/06/22 09:29:21;;;;;;;;;0.00;0.00;;;;;44.25;19.21;99776.72;5024752;28;45497;-70
2022/06/22 09:31:55;;;;;;;;;0.67;0.00;;;;;41.97;20.87;99773.63;5038092;28;45459;-70
2022/06/22 09:34:23;;;;;;;;;0.67;0.33;;;;;42.35;20.01;99765.59;5036374;28;45622;-70
2022/06/22 09:37:02;;;;;;;;;0.67;0.33;;;;;41.66;21.38;99765.28;5020728;28;45411;-70
2022/06/22 09:39:39;;;;;;;;;0.00;0.00;;;;;39.32;23.35;99766.69;5038676;28;45423;-71
2022/06/22 09:42:28;;;;;;;;;0.00;0.00;;;;;37.06;25.68;99756.06;5037695;28;45572;-70
2022/06/22 09:44:56;;;;;;;;;0.00;0.00;;;;;35.57;28.29;99772.16;5038410;28;45471;-71
2022/06/22 09:47:52;;;;;;;;;2.00;0.67;;;;;34.59;29.45;99765.88;5038486;28;45493;-70
2022/06/22 09:50:36;;;;;;;;;0.00;0.00;;;;;33.60;31.01;99762.06;5024252;28;45316;-72
2022/06/22 09:53:27;;;;;;;;;0.00;0.00;;;;;32.94;31.84;99761.72;5038094;28;45556;-70
2022/06/22 09:56:22;;;;;;;;;0.67;0.67;;;;;32.52;32.88;99754.97;5038076;28;45454;-70
2022/06/22 09:59:15;;;;;;;;;3.00;0.67;;;;;32.09;33.01;99759.84;5031671;28;45531;-70
2022/06/22 10:01:43;;;;;;;;;0.00;0.00;;;;;32.08;32.99;99763.50;5036721;28;45445;-70
2022/06/22 10:04:31;;;;;;;;;0.00;0.00;;;;;32.22;33.16;99769.75;5037247;28;45750;-71
2022/06/22 10:07:08;;;;;;;;;1.67;0.33;;;;;32.48;32.62;99763.28;5037810;28;45470;-70
2022/06/22 10:10:03;;;;;;;;;1.00;0.67;;;;;32.68;31.27;99751.03;5019968;28;45382;-69
2022/06/22 10:12:47;;;;;;;;;0.67;0.67;;;;;32.90;32.00;99776.47;5038300;28;45478;-70
2022/06/22 10:15:15;;;;;;;;;1.00;0.67;;;;;33.35;31.69;99775.81;5037408;28;45386;-70
2022/06/22 10:18:05;;;;;;;;;0.67;0.67;;;;;33.69;31.62;99779.47;5037674;28;45470;-70
2022/06/22 10:21:02;;;;;;;;;0.33;0.33;;;;;34.32;31.36;99779.00;5036152;28;45369;-70
2022/06/22 10:24:05;;;;;;;;;0.67;0.00;;;;;34.76;29.23;99777.22;5037160;28;45459;-70
2022/06/22 10:27:08;;;;;;;;;0.00;0.00;;;;;34.75;28.19;99768.22;5020898;28;45617;-70
2022/06/22 10:29:52;;;;;;;;;0.00;0.00;;;;;34.46;29.02;99774.19;5035800;28;45534;-70
2022/06/22 10:32:29;;;;;;;;;0.00;0.00;;;;;34.47;29.88;99773.19;5019198;28;45446;-69
2022/06/22 10:35:32;;;;;;;;;0.33;0.33;;;;;34.26;30.11;99773.13;5026994;28;45553;-70
2022/06/22 10:38:34;;;;;;;;;0.33;0.33;;;;;33.63;30.52;99761.84;5024734;28;46785;-70
2022/06/22 10:45:08;;;;;;;;;2.33;1.33;;;;;33.63;31.57;99774.53;5036979;28;45430;-70
2022/06/22 10:48:01;;;;;;;;;0.67;0.33;;;;;34.19;30.84;99776.44;4990726;28;45595;-70
2022/06/22 10:50:43;;;;;;;;;0.67;0.67;;;;;35.37;30.27;99772.03;5023970;28;45576;-70
2022/06/22 10:53:28;;;;;;;;;0.67;0.67;;;;;35.72;28.84;99776.28;5036515;28;45506;-70
2022/06/22 10:56:02;;;;;;;;;0.00;0.00;;;;;36.79;27.64;99773.13;5036424;28;45627;-69
2022/06/22 10:58:38;;;;;;;;;0.67;0.67;;;;;36.85;27.57;99756.22;5037332;28;45465;-71
2022/06/22 11:01:37;;;;;;;;;1.67;0.67;;;;;36.01;28.21;99761.97;5018846;28;46337;-70
2022/06/22 11:04:22;;;;;;;;;2.00;0.67;;;;;35.36;30.09;99786.63;5037187;28;45547;-70
2022/06/22 11:07:02;;;;;;;;;0.67;0.67;;;;;34.61;30.85;99782.91;5018585;28;45392;-71
2022/06/22 11:09:41;;;;;;;;;0.00;0.00;;;;;34.15;31.36;99775.81;5037415;28;45527;-72
2022/06/22 11:12:27;;;;;;;;;0.67;0.67;;;;;33.63;32.32;99786.22;5018809;28;46491;-70
2022/06/22 11:15:02;;;;;;;;;0.33;0.00;;;;;33.34;33.10;99788.47;5037178;28;45546;-71
2022/06/22 11:17:55;;;;;;;;;1.67;1.67;;;;;32.99;33.65;99773.06;5037574;28;45500;-71
2022/06/22 11:20:58;;;;;;;;;0.67;0.67;;;;;32.83;33.70;99772.50;5006664;28;45347;-70
2022/06/22 11:24:05;;;;;;;;;0.67;0.67;;;;;32.80;33.76;99775.44;5017535;28;46036;-69
2022/06/22 11:34:04;;;;;;;;;1.00;1.00;;;;;33.25;32.77;99795.47;4991836;28;45343;-70
2022/06/22 11:37:02;;;;;;;;;3.67;1.67;;;;;32.91;33.71;99797.13;5037134;28;46017;-70
2022/06/22 11:39:46;;;;;;;;;1.33;0.67;;;;;32.57;32.93;99798.75;5037028;28;45308;-70
2022/06/22 11:42:37;;;;;;;;;0.67;0.67;;;;;31.85;33.74;99775.94;5037173;28;45302;-70
2022/06/22 11:48:28;;;;;;;;;1.00;1.00;;;;;31.72;34.89;99783.19;5036998;28;45936;-70
2022/06/22 11:51:22;;;;;;;;;1.67;1.67;;;;;31.69;34.45;99789.66;5035633;28;45333;-70
2022/06/22 11:53:50;;;;;;;;;2.00;0.33;;;;;31.69;33.94;99797.78;5035432;28;45477;-70
2022/06/22 11:56:16;;;;;;;;;1.00;1.00;;;;;31.49;35.44;99787.47;5018640;28;45518;-70
2022/06/22 11:59:14;;;;;;;;;2.67;1.67;;;;;31.40;35.78;99780.84;5036195;28;46535;-70
2022/06/22 12:02:09;;;;;;;;;1.67;1.67;;;;;31.45;35.78;99772.47;5015494;28;45447;-70
2022/06/22 12:04:56;;;;;;;;;2.00;1.33;;;;;31.33;35.44;99779.53;5036614;28;45448;-70
2022/06/22 12:08:01;;;;;;;;;0.67;0.67;;;;;31.02;36.33;99778.94;5037298;28;45987;-70
2022/06/22 12:10:44;;;;;;;;;1.67;1.00;;;;;30.73;36.12;99773.63;5036347;28;45449;-72
2022/06/22 12:13:27;;;;;;;;;2.00;1.67;;;;;30.56;36.89;99783.78;5036142;28;45311;-70
2022/06/22 12:16:16;;;;;;;;;2.00;2.00;;;;;30.77;37.49;99782.38;5036290;28;45324;-70
2022/06/22 12:19:09;;;;;;;;;2.00;2.00;;;;;30.85;36.84;99776.47;5036791;28;45244;-70
2022/06/22 12:21:37;;;;;;;;;2.33;1.33;;;;;30.91;37.32;99766.16;5035944;28;45685;-69
2022/06/22 12:24:17;;;;;;;;;3.00;1.67;;;;;31.05;37.24;99762.53;5036391;28;45786;-70
2022/06/22 12:26:52;;;;;;;;;2.00;2.00;;;;;31.42;36.51;99776.22;5035720;28;46067;-72
2022/06/22 12:29:42;;;;;;;;;3.00;2.00;;;;;31.71;35.87;99771.53;5018164;28;45349;-70
2022/06/22 12:32:25;;;;;;;;;2.00;1.00;;;;;31.55;35.70;99759.19;5017971;28;46239;-71
2022/06/22 12:35:00;;;;;;;;;2.00;2.00;;;;;31.67;35.64;99766.41;5017851;28;45397;-70
2022/06/22 12:37:35;;;;;;;;;1.00;1.00;;;;;31.56;36.03;99763.63;5036035;28;45248;-70
2022/06/22 12:40:11;;;;;;;;;1.00;1.00;;;;;31.25;35.48;99750.38;5036849;28;45265;-70
2022/06/22 12:42:45;;;;;;;;;2.00;2.00;;;;;30.99;36.64;99770.19;5036252;28;45450;-70
2022/06/22 12:45:32;;;;;;;;;3.00;3.00;;;;;30.82;37.75;99763.19;5018143;28;45277;-70
2022/06/22 12:48:30;;;;;;;;;2.00;2.00;;;;;30.54;38.29;99746.16;5035767;28;45348;-70
2022/06/22 12:51:05;;;;;;;;;1.00;1.00;;;;;30.69;37.64;99755.91;5040029;28;45359;-71
2022/06/22 12:53:38;;;;;;;;;1.00;1.00;;;;;31.03;36.96;99745.59;5039956;28;45547;-70
2022/06/22 12:56:15;;;;;;;;;0.67;0.00;;;;;31.08;36.35;99735.38;5021893;28;46181;-70
2022/06/22 12:58:49;;;;;;;;;2.00;1.00;;;;;30.52;36.91;99756.16;5039195;28;46135;-69